Albert J Ellis Airport Jacksonville US
ICAO: KOAJ
IATA: OAJ
Category: Medium
Scheduled Services: No

Elevation: 94 ft
TransAlt. 18000 ft.

Airport Communications:
WILMINGTON APP/DEP:121.4
AWOS 3:124.475
CTAF/UNICOM:123

KOAJ Zoom In..

If you have problems with the map follow the link
https://www.worldairports.se/pages/airport.php?
ICAO=KOAJ

Runways:

(A) RW 05 length 7100 ft width 150 ft
ILS 108.70 / hdg 52

(B) RW 23 length 7100 ft width 150 ft
---- / hdg 232

Location; KOAJ
Day. 16 / Time. 10.56 Zulu
* Altimeter: 29.99
* Temperature: 06° c. 42.8°f.
* Wind from: 240° Speed 04 kn.
Dewpoint: 04° c.
Visibility: 10 Statute Miles.
Clouds: Clear (automated report).

KOAJ 161056Z AUTO 24004KT 10SM CLR 06/04 A2999 RMK AO2 SLP162 T00610044


Wind From 240°
Speed 04 kn.

 
 
jpsmedia.com for Web Design worldairports.se 2018   terms of use